Walnut Ridge, AR

7:14 PM CST on December 27, 2014 (GMT -0600)
Walnut Ridge Regional | Change Station
CLOSE
Current Station
Airport
Location: Walnut Ridge,
Elevation: 272 ft
Nearby Weather Stations

Elev 272 ft 36.12 °N, 90.93 °W | Updated 19 minutes ago

Rain
Rain
43 °F
Feels Like 37 °F
N
12
Wind Variable Wind from NNW

Today
High -- | Low -- °F
--% Chance of Precip.
Yesterday
High -- | Low -- °F
Precip. -- in
7:13 AM 4:56 PM
Waxing Crescent, 42% visible
Pressure 30.16 in
Visibility 7.0 miles
Clouds Scattered Clouds 700 ft
Overcast 3600 ft
Windchill 37 °F
Dew Point 39 °F
Humidity 87%
Rainfall 0.84 in
Snow Depth Not available.
UV 0 out of 12
Pollen .10 out of 12
Air Quality Not available.
Flu Activity Not available.
METAR KARG 280055Z AUTO 34010KT 7SM SCT007 OVC036 06/04 A3016 RMK AO1 P0021

More Conditions Fewer Conditions

Pressure 30.16 in
Visibility 7.0 miles
Clouds Scattered Clouds 700 ft
Overcast 3600 ft
Windchill 37 °F
Dew Point 39 °F
Humidity 87%
Rainfall 0.84 in
Snow Depth Not available.
UV 0 out of 12
Pollen .10 out of 12
Air Quality Not available.
Flu Activity Not available.
METAR KARG 280055Z AUTO 34010KT 7SM SCT007 OVC036 06/04 A3016 RMK AO1 P0021

More Conditions Fewer Conditions

10-Day Weather Forecast

Almanac

Astronomy

Dec. 27, 2014 Rise Set
Actual Time
Civil Twilight
Nautical Twilight
Astronomical Twilight
Moon
Length of Visible Light
Length of Day
Tomorrow will be .
, % of the Moon is Illuminated

Today's Extremes

State Highs State Lows

Community

WunderPhotos

Upload Photos

1,781,120 photos uploaded!

WunderBlogs® & News

Nearby

Air Quality

  Air Quality AQ Index Pollutant
Not available.

Snow Depth

Station Depth Elevation

Earthquake Activity

City Distance Mag. Time & Date
Minimum magnitude displayed is 2.5.

Coastal Water Temperatures

Place Temperature

Nearby Weather Stations